Time;durP1;ratioP1;P1;durP2;ratioP2;P2;SDS_P1;SDS_P2;PMS_P1;PMS_P2;Temp;Humidity;BMP_temperature;BMP_pressure;BME280_temperature;BME280_humidity;BME280_pressure;Samples;Min_cycle;Max_cycle;Signal;HPM_P1;HPM_P2
2021/01/17 00:02:47;;;;;;;10.80;6.27;;;;;;;-10.78;76.68;99284.03;493255;1144;65204;-66
2021/01/17 00:12:52;;;;;;;13.87;7.33;;;;;;;-11.04;76.50;99305.55;493525;1143;65463;-66
2021/01/17 00:23:01;;;;;;;6.93;3.90;;;;;;;-11.27;76.55;99321.17;494081;1144;65152;-65
2021/01/17 00:33:05;;;;;;;7.87;5.27;;;;;;;-11.46;76.38;99332.63;494325;1143;65543;-66
2021/01/17 00:43:09;;;;;;;6.70;4.57;;;;;;;-11.58;76.41;99343.38;494262;1144;65590;-66
2021/01/17 00:53:13;;;;;;;11.30;4.45;;;;;;;-11.89;76.14;99349.42;493788;1144;65155;-70
2021/01/17 01:03:17;;;;;;;13.22;7.33;;;;;;;-12.05;76.57;99374.42;484731;1142;10001020;-66
2021/01/17 01:13:21;;;;;;;7.03;4.37;;;;;;;-12.13;76.41;99369.19;493169;1144;65262;-65
2021/01/17 01:23:25;;;;;;;12.13;6.72;;;;;;;-12.53;76.41;99380.83;493094;1143;65600;-64
2021/01/17 01:33:27;;;;;;;;;;;;;;;-12.64;77.04;99394.88;493055;1143;65201;-64
2021/01/17 01:43:32;;;;;;;9.60;5.67;;;;;;;-12.84;75.72;99390.16;493628;1144;65141;-66
2021/01/17 01:53:36;;;;;;;10.97;6.97;;;;;;;-13.10;76.26;99407.97;493624;1144;65452;-65
2021/01/17 02:03:46;;;;;;;17.10;6.57;;;;;;;-13.27;75.68;99422.67;493656;1144;65198;-64
2021/01/17 02:13:57;;;;;;;15.03;7.27;;;;;;;-13.49;76.55;99433.83;485166;1144;10001943;-56
2021/01/17 02:24:09;;;;;;;14.80;8.03;;;;;;;-13.75;76.36;99431.36;493274;1144;65222;-54
2021/01/17 02:34:15;;;;;;;15.30;7.45;;;;;;;-13.81;75.68;99439.60;492647;1144;65267;-57
2021/01/17 02:44:21;;;;;;;18.10;8.05;;;;;;;-13.62;76.96;99443.55;493262;1143;65545;-57
2021/01/17 02:54:31;;;;;;;16.97;6.40;;;;;;;-13.59;76.86;99445.33;493354;1144;65637;-55
2021/01/17 03:04:41;;;;;;;12.30;6.53;;;;;;;-13.44;76.19;99450.84;493467;1144;65242;-58
2021/01/17 03:14:48;;;;;;;14.03;8.37;;;;;;;-13.36;76.61;99451.03;493474;1143;65230;-55
2021/01/17 03:24:52;;;;;;;16.57;8.73;;;;;;;-13.32;76.25;99450.33;492680;1143;65175;-56
2021/01/17 03:34:57;;;;;;;13.57;7.50;;;;;;;-13.29;75.24;99445.36;493183;1143;65783;-54
2021/01/17 03:45:01;;;;;;;14.60;7.47;;;;;;;-13.38;75.99;99457.72;493968;1143;65255;-57
2021/01/17 03:55:07;;;;;;;15.30;8.57;;;;;;;-13.47;75.26;99462.52;493799;1143;65181;-57
2021/01/17 04:05:13;;;;;;;14.97;8.27;;;;;;;-13.50;76.10;99465.82;494156;1144;65111;-55
2021/01/17 04:15:17;;;;;;;9.40;6.03;;;;;;;-13.63;75.97;99479.72;493480;1143;65458;-57
2021/01/17 04:25:21;;;;;;;12.03;5.87;;;;;;;-13.84;74.99;99468.13;494199;1144;65200;-55
2021/01/17 04:35:25;;;;;;;16.20;9.03;;;;;;;-13.93;75.91;99467.81;494150;1143;65643;-58
2021/01/17 04:45:30;;;;;;;23.43;9.60;;;;;;;-14.12;75.23;99469.76;494001;1143;65108;-56
2021/01/17 04:55:36;;;;;;;15.67;8.50;;;;;;;-14.39;76.17;99505.83;493411;1144;65570;-56
2021/01/17 05:05:53;;;;;;;12.87;8.57;;;;;;;-14.65;75.76;99518.38;493434;1143;65138;-56
2021/01/17 05:15:58;;;;;;;18.65;7.75;;;;;;;-14.76;75.74;99518.84;493623;1143;65146;-56
2021/01/17 05:26:04;;;;;;;14.77;7.73;;;;;;;-14.70;75.88;99532.49;493442;1144;65150;-52
2021/01/17 05:36:16;;;;;;;17.30;7.57;;;;;;;-14.53;75.92;99538.15;493484;1143;65130;-55
2021/01/17 05:46:19;;;;;;;12.97;5.73;;;;;;;-14.34;75.58;99535.42;493946;1144;65198;-55
2021/01/17 05:56:24;;;;;;;17.70;9.73;;;;;;;-14.20;76.02;99534.23;493596;1144;65120;-55
2021/01/17 06:06:29;;;;;;;15.57;7.90;;;;;;;-13.99;75.36;99545.88;493763;1143;65204;-56
2021/01/17 06:16:37;;;;;;;18.45;9.65;;;;;;;-13.89;75.83;99564.71;494129;1143;65538;-54
2021/01/17 06:26:41;;;;;;;21.80;9.17;;;;;;;-13.83;75.76;99585.97;493550;1144;65204;-54
2021/01/17 06:36:48;;;;;;;17.80;8.65;;;;;;;-13.56;75.39;99607.06;493547;1143;65520;-56
2021/01/17 06:46:52;;;;;;;14.40;7.10;;;;;;;-13.35;75.65;99613.61;493472;1144;65204;-55
2021/01/17 06:57:00;;;;;;;19.30;9.37;;;;;;;-13.22;75.53;99613.20;493481;1143;65223;-57
2021/01/17 07:07:28;;;;;;;15.33;8.00;;;;;;;-13.03;74.81;99634.86;493970;1143;65208;-55
2021/01/17 07:17:34;;;;;;;17.63;9.80;;;;;;;-12.72;74.80;99660.25;493918;1144;65108;-53
2021/01/17 07:28:03;;;;;;;21.50;9.00;;;;;;;-12.75;74.28;99662.69;493474;1143;65539;-57
2021/01/17 07:38:15;;;;;;;18.30;9.00;;;;;;;-12.65;74.70;99677.34;493806;1143;65127;-54
2021/01/17 07:48:20;;;;;;;17.07;7.57;;;;;;;-12.31;73.88;99683.44;494282;1144;65205;-56
2021/01/17 07:58:24;;;;;;;16.30;8.73;;;;;;;-12.44;73.73;99687.26;494286;1144;65436;-56
2021/01/17 08:08:49;;;;;;;19.77;10.23;;;;;;;-12.62;74.16;99696.83;493795;1144;65108;-57
2021/01/17 08:18:53;;;;;;;18.77;9.20;;;;;;;-12.63;73.14;99713.66;493711;1144;65516;-54
2021/01/17 08:29:02;;;;;;;16.63;10.00;;;;;;;-12.51;73.77;99719.92;493786;1144;65145;-58
2021/01/17 08:39:06;;;;;;;15.95;9.35;;;;;;;-12.41;74.06;99737.11;493548;1144;65105;-57
2021/01/17 08:49:10;;;;;;;20.47;11.87;;;;;;;-12.34;73.59;99754.22;494084;1144;65249;-56
2021/01/17 08:59:32;;;;;;;;;;;;;;;-12.35;72.96;99775.25;494101;1143;65204;-57
2021/01/17 09:09:36;;;;;;;23.97;12.53;;;;;;;-12.21;73.05;99788.35;493792;1143;65131;-55
2021/01/17 09:19:40;;;;;;;24.07;12.70;;;;;;;-12.08;72.78;99809.86;494084;1144;65142;-55
2021/01/17 09:29:46;;;;;;;19.27;10.33;;;;;;;-12.09;72.19;99804.73;493907;1143;65204;-56
2021/01/17 09:39:51;;;;;;;22.27;13.57;;;;;;;-11.89;71.84;99820.50;493879;1144;65237;-57
2021/01/17 09:49:56;;;;;;;24.47;12.17;;;;;;;-11.69;71.95;99824.50;493635;1143;65423;-53
2021/01/17 10:00:00;;;;;;;26.35;13.75;;;;;;;-11.50;71.37;99831.78;494087;1142;65178;-56
2021/01/17 10:10:09;;;;;;;;;;;;;;;-11.23;71.24;99829.19;494238;1144;65471;-56
2021/01/17 10:20:22;;;;;;;37.53;17.93;;;;;;;-10.98;70.97;99828.20;493918;1143;65589;-58
2021/01/17 10:30:28;;;;;;;30.80;17.53;;;;;;;-10.65;70.44;99836.64;493819;1143;65124;-58
2021/01/17 10:40:33;;;;;;;30.95;16.95;;;;;;;-10.42;70.87;99852.48;493949;1143;65153;-55
2021/01/17 10:50:48;;;;;;;24.20;13.25;;;;;;;-10.41;70.47;99849.09;493527;1144;65131;-57
2021/01/17 11:00:51;;;;;;;;;;;;;;;-10.52;70.22;99858.14;493769;1143;65209;-56
2021/01/17 11:10:58;;;;;;;33.73;19.33;;;;;;;-10.33;70.38;99861.97;494075;1144;65608;-56
2021/01/17 11:21:04;;;;;;;37.90;16.90;;;;;;;-10.47;69.79;99856.56;494199;1143;65206;-56
2021/01/17 11:31:15;;;;;;;40.70;18.93;;;;;;;-10.81;69.62;99855.68;493280;1143;65197;-57
2021/01/17 11:41:21;;;;;;;46.70;24.47;;;;;;;-11.04;70.00;99860.98;485339;1143;10001751;-57
2021/01/17 11:51:25;;;;;;;44.83;24.13;;;;;;;-10.84;70.53;99850.53;493367;1143;65332;-63
2021/01/17 12:01:29;;;;;;;46.10;25.48;;;;;;;-10.76;70.04;99851.61;493324;1143;65316;-61
2021/01/17 12:11:41;;;;;;;47.30;24.50;;;;;;;-10.42;70.15;99857.56;493021;1143;65113;-61
2021/01/17 12:21:49;;;;;;;42.33;24.20;;;;;;;-10.00;70.61;99857.66;495398;1143;65672;-62
2021/01/17 12:31:53;;;;;;;40.23;24.63;;;;;;;-9.75;69.30;99868.42;493472;1143;65206;-63
2021/01/17 12:41:58;;;;;;;46.83;25.88;;;;;;;-9.72;69.53;99871.03;493112;1143;65588;-64
2021/01/17 12:52:03;;;;;;;40.00;24.75;;;;;;;-9.96;69.04;99874.72;493531;1143;65127;-62
2021/01/17 13:02:07;;;;;;;40.50;22.55;;;;;;;-10.18;68.82;99888.56;493502;1143;65162;-60
2021/01/17 13:12:12;;;;;;;30.50;16.33;;;;;;;-10.44;69.18;99887.13;493513;1144;65631;-62
2021/01/17 13:22:16;;;;;;;29.30;16.60;;;;;;;-10.68;69.08;99899.15;493255;1143;65245;-62
2021/01/17 13:32:21;;;;;;;20.62;9.78;;;;;;;-10.87;69.83;99909.66;493195;1143;65117;-63
2021/01/17 13:42:26;;;;;;;34.10;17.57;;;;;;;-11.04;69.88;99918.48;493000;1143;66339;-63
2021/01/17 13:52:31;;;;;;;38.40;21.70;;;;;;;-11.38;69.91;99928.47;493628;1143;65125;-63
2021/01/17 14:02:34;;;;;;;39.53;19.23;;;;;;;-11.40;70.25;99925.03;493387;1143;65146;-61
2021/01/17 14:12:42;;;;;;;38.53;19.32;;;;;;;-11.50;70.39;99921.37;493746;1143;65116;-63
2021/01/17 14:22:47;;;;;;;32.83;18.67;;;;;;;-11.47;70.50;99935.81;493261;1144;65150;-62
2021/01/17 14:32:55;;;;;;;33.93;17.17;;;;;;;-11.56;70.67;99932.17;493238;1143;65545;-62
2021/01/17 14:42:59;;;;;;;34.65;19.60;;;;;;;-11.60;71.18;99935.44;493493;1143;65211;-62
2021/01/17 14:53:03;;;;;;;43.35;19.25;;;;;;;-11.70;70.86;99938.49;493065;1144;65207;-62
2021/01/17 15:03:07;;;;;;;33.53;16.07;;;;;;;-11.94;71.10;99946.16;493166;1143;65105;-61
2021/01/17 15:13:10;;;;;;;;;;;;;;;-12.09;71.55;99964.25;493104;1143;65210;-62
2021/01/17 15:23:15;;;;;;;24.87;15.23;;;;;;;-12.31;71.60;99968.59;493285;1143;65449;-62
2021/01/17 15:33:19;;;;;;;25.27;12.20;;;;;;;-12.62;71.89;99980.18;492972;1143;65201;-61
2021/01/17 15:43:23;;;;;;;27.00;14.00;;;;;;;-12.87;71.67;99984.31;493176;1143;65175;-61
2021/01/17 15:53:26;;;;;;;;;;;;;;;-13.20;72.02;99997.44;493264;1144;65134;-61
2021/01/17 16:03:30;;;;;;;61.90;26.83;;;;;;;-13.45;72.56;99971.22;493130;1144;65155;-61
2021/01/17 16:13:34;;;;;;;32.23;15.53;;;;;;;-13.65;72.09;99973.84;493896;1143;65207;-61
2021/01/17 16:23:38;;;;;;;33.15;16.80;;;;;;;-14.01;72.39;99986.70;493853;1143;65464;-62
2021/01/17 16:33:43;;;;;;;35.55;18.70;;;;;;;-14.17;72.84;99998.66;493343;1144;65130;-62
2021/01/17 16:43:47;;;;;;;36.87;18.30;;;;;;;-14.33;73.41;100002.19;493461;1143;65548;-62
2021/01/17 16:54:04;;;;;;;36.17;19.40;;;;;;;-14.45;72.79;100010.10;493193;1143;65149;-62
2021/01/17 17:04:08;;;;;;;40.40;20.00;;;;;;;-14.61;73.51;100033.78;492970;1143;65204;-61
2021/01/17 17:14:12;;;;;;;35.93;18.23;;;;;;;-14.75;73.08;100019.73;493458;1144;65133;-62
2021/01/17 17:24:16;;;;;;;41.40;18.57;;;;;;;-15.04;73.46;100045.33;493418;1143;65117;-62
2021/01/17 17:34:22;;;;;;;37.60;17.75;;;;;;;-15.10;73.60;100057.63;493368;1143;65108;-63
2021/01/17 17:44:26;;;;;;;50.00;22.67;;;;;;;-15.16;73.50;100053.17;493443;1143;65121;-63
2021/01/17 17:54:41;;;;;;;49.70;24.10;;;;;;;-15.41;73.78;100077.20;492986;1128;138920;-57
2021/01/17 18:04:44;;;;;;;68.53;27.00;;;;;;;-15.53;73.59;100067.37;492994;1132;65548;-63
2021/01/17 18:14:49;;;;;;;52.30;23.10;;;;;;;-15.65;73.23;100082.77;492748;1145;65111;-63
2021/01/17 18:24:53;;;;;;;52.33;25.43;;;;;;;-15.49;73.32;100091.06;492018;1128;814559;-62
2021/01/17 18:34:56;;;;;;;56.50;26.40;;;;;;;-15.47;73.24;100091.15;484451;1144;10001217;-62
2021/01/17 18:45:01;;;;;;;70.10;29.33;;;;;;;-15.57;72.50;100093.20;492814;1145;65639;-63
2021/01/17 18:55:07;;;;;;;108.15;40.50;;;;;;;-15.72;72.56;100094.98;492067;1128;114838;-62
2021/01/17 19:05:13;;;;;;;193.00;58.63;;;;;;;-15.87;72.04;100100.95;492201;1128;116086;-63
2021/01/17 19:15:17;;;;;;;131.00;45.33;;;;;;;-15.86;72.53;100111.89;492080;1129;116286;-64
2021/01/17 19:25:21;;;;;;;100.75;42.45;;;;;;;-15.94;72.23;100103.99;492032;1129;115635;-62
2021/01/17 19:35:25;;;;;;;115.63;48.27;;;;;;;-16.11;72.14;100103.97;492181;1128;115052;-62
2021/01/17 19:45:29;;;;;;;120.83;53.73;;;;;;;-16.09;72.36;100106.58;491853;1128;115243;-61
2021/01/17 19:55:34;;;;;;;95.37;40.53;;;;;;;-16.46;71.90;100112.21;492004;1129;115193;-61
2021/01/17 20:05:38;;;;;;;130.97;53.97;;;;;;;-16.68;72.52;100129.50;492745;1129;114833;-61
2021/01/17 20:15:42;;;;;;;117.53;51.23;;;;;;;-16.91;71.82;100128.27;492357;1131;115564;-62
2021/01/17 20:25:49;;;;;;;113.57;46.57;;;;;;;-17.18;71.99;100125.99;492290;1128;115080;-61
2021/01/17 20:35:53;;;;;;;115.17;49.03;;;;;;;-17.34;71.89;100120.09;492435;1128;116462;-64
2021/01/17 20:45:57;;;;;;;125.50;51.40;;;;;;;-17.50;72.16;100117.50;492747;1128;115002;-65
2021/01/17 20:56:01;;;;;;;128.60;55.03;;;;;;;-17.55;72.22;100118.86;492200;1130;115847;-64
2021/01/17 21:06:09;;;;;;;138.00;60.13;;;;;;;-17.50;71.92;100113.33;491958;1128;115029;-63
2021/01/17 21:16:13;;;;;;;143.23;60.07;;;;;;;-17.39;71.50;100123.11;493111;1129;116376;-65
2021/01/17 21:26:19;;;;;;;121.00;52.43;;;;;;;-17.49;71.53;100139.31;492948;1129;115086;-68
2021/01/17 21:36:23;;;;;;;112.45;45.75;;;;;;;-17.59;72.47;100130.39;492691;1129;115168;-65
2021/01/17 21:46:27;;;;;;;118.60;54.50;;;;;;;-17.66;72.07;100133.31;493263;1128;115178;-66
2021/01/17 21:56:32;;;;;;;128.57;50.23;;;;;;;-17.83;71.13;100134.84;493473;1128;115434;-62
2021/01/17 22:06:36;;;;;;;129.10;50.75;;;;;;;-17.87;71.56;100136.30;492797;1128;115310;-63
2021/01/17 22:16:40;;;;;;;136.50;52.95;;;;;;;-17.99;71.88;100145.61;492808;1128;115359;-63
2021/01/17 22:26:44;;;;;;;108.03;41.33;;;;;;;-18.17;72.04;100143.78;492612;1129;115620;-63
2021/01/17 22:36:48;;;;;;;96.70;39.97;;;;;;;-18.28;71.87;100148.13;492267;1129;115266;-65
2021/01/17 22:46:52;;;;;;;108.37;41.50;;;;;;;-18.30;72.11;100147.17;492296;1128;115090;-66
2021/01/17 22:56:57;;;;;;;110.67;44.57;;;;;;;-18.34;71.80;100152.78;492353;1128;115527;-67
2021/01/17 23:07:02;;;;;;;115.70;44.73;;;;;;;-18.44;71.96;100163.02;492483;1128;115273;-65
2021/01/17 23:17:06;;;;;;;120.05;44.95;;;;;;;-18.48;71.89;100151.94;492930;1128;115251;-65
2021/01/17 23:27:11;;;;;;;103.20;40.87;;;;;;;-18.61;71.35;100142.78;492785;1128;115601;-67
2021/01/17 23:37:15;;;;;;;112.10;47.83;;;;;;;-18.57;71.43;100131.31;492377;1129;115234;-66
2021/01/17 23:47:20;;;;;;;114.60;42.03;;;;;;;-18.76;71.24;100140.19;492818;1129;115533;-68
2021/01/17 23:57:25;;;;;;;125.23;46.23;;;;;;;-18.84;71.43;100138.87;492214;1128;115255;-68
